Time;durP1;ratioP1;P1;durP2;ratioP2;P2;SDS_P1;SDS_P2;PMS_P1;PMS_P2;Temp;Humidity;BMP_temperature;BMP_pressure;BME280_temperature;BME280_humidity;BME280_pressure;Samples;Min_cycle;Max_cycle;Signal;HPM_P1;HPM_P2
2021/03/26 05:47:53;;;;;;;9.48;4.88;;;;;;;;;;6245509;22;884138;-81
2021/03/26 05:50:25;;;;;;;11.05;4.80;;;;;;;;;;6291788;22;20182;-80
2021/03/26 05:53:13;;;;;;;8.93;4.68;;;;;;;;;;6315098;22;20003;-80
2021/03/26 05:55:44;;;;;;;8.18;4.80;;;;;;;;;;6280216;22;20003;-79
2021/03/26 05:58:16;;;;;;;9.35;5.05;;;;;;;;;;6257071;22;20004;-79
2021/03/26 06:00:54;;;;;;;10.35;5.00;;;;;;;;;;6285198;22;20026;-80
2021/03/26 06:03:19;;;;;;;11.45;5.00;;;;;;;;;;6280295;22;20004;-79
2021/03/26 06:06:03;;;;;;;9.77;4.47;;;;;;;;;;6256522;22;20030;-79
2021/03/26 06:08:31;;;;;;;9.25;4.47;;;;;;;;;;6261897;22;20003;-80
2021/03/26 06:10:57;;;;;;;11.27;5.78;;;;;;;;;;6287928;22;20008;-80
2021/03/26 06:13:38;;;;;;;14.40;5.93;;;;;;;;;;6261848;22;20073;-80
2021/03/26 06:16:06;;;;;;;8.88;5.60;;;;;;;;;;6287577;22;19996;-80
2021/03/26 06:18:51;;;;;;;9.68;4.65;;;;;;;;;;6261351;22;20003;-81
2021/03/26 06:21:18;;;;;;;7.97;4.45;;;;;;;;;;6261076;22;20011;-80
2021/03/26 06:23:46;;;;;;;7.35;5.05;;;;;;;;;;6261224;22;20003;-80
2021/03/26 06:26:15;;;;;;;8.20;5.63;;;;;;;;;;6259559;22;20007;-81
2021/03/26 06:28:56;;;;;;;9.10;5.05;;;;;;;;;;6262374;22;20018;-80
2021/03/26 06:31:34;;;;;;;16.48;5.97;;;;;;;;;;6291763;22;20008;-80
2021/03/26 06:34:10;;;;;;;11.07;5.75;;;;;;;;;;6290186;22;20004;-80
2021/03/26 06:36:47;;;;;;;11.70;6.07;;;;;;;;;;6263558;22;20008;-81
2021/03/26 06:39:19;;;;;;;13.45;6.78;;;;;;;;;;6261535;22;20008;-81
2021/03/26 06:41:44;;;;;;;;;;;;;;;;;;6288734;22;20011;-80
2021/03/26 06:44:13;;;;;;;17.75;6.30;;;;;;;;;;6284934;22;19907;-79
2021/03/26 06:46:57;;;;;;;18.92;8.80;;;;;;;;;;6255708;22;20034;-80
2021/03/26 06:51:47;;;;;;;11.40;6.93;;;;;;;;;;5086082;27;20395;-81
2021/03/26 06:54:28;;;;;;;12.93;7.63;;;;;;;;;;5075629;28;20051;-81
2021/03/26 06:56:56;;;;;;;10.77;5.72;;;;;;;;;;5077326;28;20020;-81
2021/03/26 06:59:31;;;;;;;11.18;6.47;;;;;;;;;;5076490;28;20096;-81
2021/03/26 07:02:26;;;;;;;13.25;6.72;;;;;;;;;;5070843;28;20112;-81
2021/03/26 07:04:59;;;;;;;12.35;7.22;;;;;;;;;;5061284;28;20072;-80
2021/03/26 07:07:28;;;;;;;10.60;6.35;;;;;;;;;;5077013;28;20032;-81
2021/03/26 07:10:04;;;;;;;10.07;6.40;;;;;;;;;;5076504;28;20047;-81
2021/03/26 07:12:48;;;;;;;10.85;6.40;;;;;;;;;;5079090;28;20544;-81
2021/03/26 07:15:14;;;;;;;13.73;7.78;;;;;;;;;;5065214;28;20082;-80
2021/03/26 07:17:59;;;;;;;14.85;7.82;;;;;;;;;;5078433;28;20021;-80
2021/03/26 07:20:43;;;;;;;14.50;7.80;;;;;;;;;;5072819;28;20038;-81
2021/03/26 07:23:15;;;;;;;15.00;7.07;;;;;;;;;;5069482;28;20025;-81
2021/03/26 07:26:04;;;;;;;13.80;8.50;;;;;;;;;;5086878;28;20032;-81
2021/03/26 07:28:40;;;;;;;13.90;8.43;;;;;;;;;;5058076;28;20032;-81
2021/03/26 07:31:24;;;;;;;17.08;8.77;;;;;;;;;;5076530;28;20021;-81
2021/03/26 07:34:02;;;;;;;16.10;8.32;;;;;;;;;;5075707;28;20027;-81
2021/03/26 07:36:53;;;;;;;13.55;8.98;;;;;;;;;;5080510;28;20055;-81
2021/03/26 07:39:39;;;;;;;18.02;9.05;;;;;;;;;;5075110;28;20045;-81
2021/03/26 07:42:05;;;;;;;13.00;8.05;;;;;;;;;;5076151;28;20078;-81
2021/03/26 07:44:30;;;;;;;14.75;8.52;;;;;;;;;;5083532;28;20021;-81
2021/03/26 07:47:11;;;;;;;21.15;9.68;;;;;;;;;;5077852;28;19912;-81
2021/03/26 07:49:47;;;;;;;14.52;9.23;;;;;;;;;;5086473;28;20028;-81
2021/03/26 07:52:24;;;;;;;15.52;9.27;;;;;;;;;;5078460;28;20021;-81
2021/03/26 07:54:50;;;;;;;13.18;9.00;;;;;;;;;;5069747;28;20485;-80
2021/03/26 07:57:25;;;;;;;14.25;9.60;;;;;;;;;;5079316;28;20073;-81
2021/03/26 07:59:50;;;;;;;14.60;8.80;;;;;;;;;;5077551;28;20024;-81
2021/03/26 08:02:32;;;;;;;20.10;9.75;;;;;;;;;;5061868;28;20036;-81
2021/03/26 08:05:03;;;;;;;16.27;8.73;;;;;;;;;;5059307;28;20123;-81
2021/03/26 08:07:29;;;;;;;19.75;9.40;;;;;;;;;;5066277;28;20025;-83
2021/03/26 08:10:13;;;;;;;19.05;9.18;;;;;;;;;;5068525;28;20128;-84
2021/03/26 08:12:58;;;;;;;15.57;8.77;;;;;;;;;;5065873;28;20036;-83
2021/03/26 08:15:35;;;;;;;15.23;9.10;;;;;;;;;;5063453;28;20020;-83
2021/03/26 08:18:22;;;;;;;20.67;9.70;;;;;;;;;;5059476;28;20484;-83
2021/03/26 08:21:01;;;;;;;16.73;8.32;;;;;;;;;;5059824;28;20031;-84
2021/03/26 08:23:43;;;;;;;16.48;8.65;;;;;;;;;;5063260;28;20025;-84
2021/03/26 08:26:09;;;;;;;15.45;9.50;;;;;;;;;;5065824;28;20036;-83
2021/03/26 08:28:54;;;;;;;18.90;9.27;;;;;;;;;;5062531;28;20107;-83
2021/03/26 08:31:33;;;;;;;19.17;10.05;;;;;;;;;;5045306;28;20218;-83
2021/03/26 08:34:17;;;;;;;14.48;8.95;;;;;;;;;;5062284;28;20055;-80
2021/03/26 08:36:46;;;;;;;18.17;9.77;;;;;;;;;;5062141;28;20021;-81
2021/03/26 08:39:28;;;;;;;21.52;10.68;;;;;;;;;;5070100;28;20020;-83
2021/03/26 08:41:53;;;;;;;;;;;;;;;;;;5075424;28;20118;-85
2021/03/26 08:44:21;;;;;;;18.05;8.15;;;;;;;;;;5063021;28;19917;-84
2021/03/26 08:46:48;;;;;;;12.45;8.50;;;;;;;;;;5064258;28;20638;-85
2021/03/26 08:49:14;;;;;;;15.75;9.30;;;;;;;;;;5059741;28;20029;-84
2021/03/26 08:51:58;;;;;;;14.18;9.02;;;;;;;;;;5061385;28;20047;-84
2021/03/26 08:54:35;;;;;;;15.00;8.52;;;;;;;;;;5070958;28;20079;-85
2021/03/26 08:57:10;;;;;;;16.20;8.80;;;;;;;;;;5073175;28;20032;-85
2021/03/26 08:59:59;;;;;;;13.38;7.93;;;;;;;;;;5063326;28;20033;-84
2021/03/26 09:02:25;;;;;;;16.90;10.05;;;;;;;;;;5070172;28;20092;-84
2021/03/26 09:05:11;;;;;;;10.82;7.50;;;;;;;;;;5064296;28;20025;-84
2021/03/26 09:07:42;;;;;;;15.25;8.18;;;;;;;;;;5064316;28;20021;-84
2021/03/26 09:10:14;;;;;;;12.95;8.60;;;;;;;;;;5054134;28;20389;-83
2021/03/26 09:12:59;;;;;;;16.13;8.50;;;;;;;;;;5060807;28;20602;-82
2021/03/26 09:15:43;;;;;;;12.20;7.78;;;;;;;;;;5060562;28;20067;-83
2021/03/26 09:18:12;;;;;;;15.73;9.27;;;;;;;;;;5051572;28;20056;-83
2021/03/26 09:20:42;;;;;;;13.38;7.68;;;;;;;;;;5059478;28;20396;-84
2021/03/26 09:23:26;;;;;;;14.55;8.23;;;;;;;;;;5053284;28;20025;-83
2021/03/26 09:25:53;;;;;;;17.13;8.98;;;;;;;;;;5058692;28;20496;-81
2021/03/26 09:28:32;;;;;;;16.50;8.48;;;;;;;;;;5058085;28;20033;-81
2021/03/26 09:31:24;;;;;;;13.73;8.20;;;;;;;;;;5059131;28;20024;-82
2021/03/26 09:34:01;;;;;;;14.18;8.15;;;;;;;;;;5076872;28;20036;-82
2021/03/26 09:36:29;;;;;;;17.88;8.82;;;;;;;;;;5065529;28;20012;-82
2021/03/26 09:39:06;;;;;;;14.82;8.40;;;;;;;;;;5068823;28;20020;-82
2021/03/26 09:41:48;;;;;;;17.02;8.00;;;;;;;;;;5068701;28;20032;-80
2021/03/26 09:44:33;;;;;;;12.57;6.43;;;;;;;;;;5053743;28;20017;-81
2021/03/26 09:46:59;;;;;;;12.68;6.90;;;;;;;;;;5046634;28;20955;-81
2021/03/26 09:49:33;;;;;;;10.75;5.93;;;;;;;;;;5060025;28;20032;-82
2021/03/26 09:52:19;;;;;;;13.15;6.78;;;;;;;;;;5053695;28;20587;-81
2021/03/26 09:54:47;;;;;;;10.50;5.88;;;;;;;;;;5054342;28;20027;-82
2021/03/26 09:57:32;;;;;;;11.35;6.13;;;;;;;;;;5063928;28;20420;-82
2021/03/26 10:00:16;;;;;;;11.07;5.40;;;;;;;;;;5055267;28;20115;-83
2021/03/26 10:02:47;;;;;;;9.73;5.47;;;;;;;;;;5053746;28;20049;-82
2021/03/26 10:05:28;;;;;;;7.50;4.90;;;;;;;;;;5052747;28;20033;-82
2021/03/26 10:08:08;;;;;;;10.02;4.15;;;;;;;;;;5048547;28;20397;-82
2021/03/26 10:13:12;;;;;;;6.22;3.72;;;;;;;;;;5060114;28;20065;-82
2021/03/26 10:15:46;;;;;;;9.45;4.05;;;;;;;;;;5060778;28;20044;-82
2021/03/26 10:18:17;;;;;;;5.85;3.53;;;;;;;;;;5060555;28;20104;-82
2021/03/26 10:21:01;;;;;;;7.40;3.35;;;;;;;;;;5055530;28;20032;-82
2021/03/26 10:23:29;;;;;;;7.55;3.38;;;;;;;;;;5048592;28;20053;-81
2021/03/26 10:25:54;;;;;;;9.70;3.40;;;;;;;;;;5061464;28;20028;-82
2021/03/26 10:28:29;;;;;;;6.00;3.22;;;;;;;;;;5058487;28;20110;-83
2021/03/26 10:31:03;;;;;;;6.32;3.50;;;;;;;;;;5056088;28;20049;-82
2021/03/26 10:33:31;;;;;;;8.40;3.38;;;;;;;;;;5051558;28;20040;-82
2021/03/26 10:36:02;;;;;;;5.22;3.60;;;;;;;;;;5057955;28;20105;-82
2021/03/26 10:38:49;;;;;;;7.40;3.70;;;;;;;;;;5053904;28;20098;-82
2021/03/26 10:41:24;;;;;;;8.50;3.47;;;;;;;;;;5058030;28;20044;-83
2021/03/26 10:44:02;;;;;;;7.57;3.10;;;;;;;;;;5058657;28;20034;-83
2021/03/26 10:46:35;;;;;;;5.95;3.30;;;;;;;;;;5059599;28;20024;-81
2021/03/26 10:49:03;;;;;;;5.20;2.55;;;;;;;;;;5056399;28;20083;-81
2021/03/26 10:51:39;;;;;;;5.97;2.72;;;;;;;;;;5056127;28;20064;-81
2021/03/26 10:54:11;;;;;;;3.67;2.20;;;;;;;;;;5054441;28;20073;-84
2021/03/26 10:56:46;;;;;;;4.28;2.17;;;;;;;;;;5058985;28;20012;-84
2021/03/26 10:59:21;;;;;;;4.95;2.40;;;;;;;;;;5056659;28;20328;-84
2021/03/26 11:01:49;;;;;;;7.20;2.95;;;;;;;;;;5056852;28;20055;-84
2021/03/26 11:04:35;;;;;;;5.47;2.70;;;;;;;;;;5059039;28;20082;-85
2021/03/26 11:07:08;;;;;;;6.80;2.95;;;;;;;;;;5055318;28;20029;-84
2021/03/26 11:09:41;;;;;;;5.60;3.00;;;;;;;;;;5054525;28;20020;-83
2021/03/26 11:12:15;;;;;;;6.57;3.65;;;;;;;;;;5062778;28;20041;-85
2021/03/26 11:14:44;;;;;;;6.68;3.55;;;;;;;;;;5060270;28;20029;-85
2021/03/26 11:17:19;;;;;;;6.25;2.72;;;;;;;;;;5063277;28;20025;-84
2021/03/26 11:20:03;;;;;;;4.38;2.60;;;;;;;;;;5056347;28;20526;-85
2021/03/26 11:22:30;;;;;;;5.18;2.88;;;;;;;;;;5061819;28;20020;-85
2021/03/26 11:25:01;;;;;;;5.97;3.40;;;;;;;;;;5062014;28;20024;-85
2021/03/26 11:27:30;;;;;;;7.87;3.60;;;;;;;;;;5067875;28;20027;-85
2021/03/26 11:30:16;;;;;;;11.60;4.07;;;;;;;;;;5056374;28;20031;-84
2021/03/26 11:32:44;;;;;;;6.63;3.13;;;;;;;;;;5049776;28;20024;-85
2021/03/26 11:35:12;;;;;;;10.60;2.92;;;;;;;;;;5053162;28;20434;-85
2021/03/26 11:37:51;;;;;;;5.05;2.55;;;;;;;;;;5055825;28;20033;-85
2021/03/26 11:40:26;;;;;;;7.32;2.83;;;;;;;;;;5058468;28;20551;-82
2021/03/26 11:42:53;;;;;;;7.07;2.72;;;;;;;;;;5065580;28;20043;-82
2021/03/26 11:45:19;;;;;;;6.65;3.28;;;;;;;;;;5068532;28;20025;-82
2021/03/26 11:47:46;;;;;;;4.57;2.38;;;;;;;;;;5064477;28;20027;-81
2021/03/26 11:50:17;;;;;;;4.25;2.38;;;;;;;;;;5068649;28;20027;-82
2021/03/26 11:52:45;;;;;;;6.30;2.70;;;;;;;;;;5068146;28;20047;-81
2021/03/26 11:55:28;;;;;;;6.95;2.53;;;;;;;;;;5067924;28;20017;-82
2021/03/26 11:57:58;;;;;;;4.70;2.67;;;;;;;;;;5061243;28;20025;-82
2021/03/26 12:00:26;;;;;;;6.38;3.13;;;;;;;;;;5062486;28;20021;-77
2021/03/26 12:02:55;;;;;;;7.53;2.53;;;;;;;;;;5060857;28;20025;-82
2021/03/26 12:05:30;;;;;;;7.43;2.95;;;;;;;;;;5067956;28;20028;-82
2021/03/26 12:08:07;;;;;;;6.45;2.60;;;;;;;;;;5061916;28;20029;-82
2021/03/26 12:11:02;;;;;;;8.48;2.95;;;;;;;;;;5068175;28;20028;-82
2021/03/26 12:13:35;;;;;;;4.35;2.67;;;;;;;;;;5051295;28;20029;-81
2021/03/26 12:16:06;;;;;;;4.53;2.78;;;;;;;;;;5062527;28;20008;-81
2021/03/26 12:18:32;;;;;;;;;;;;;;;;;;5059452;28;20036;-81
2021/03/26 12:21:16;;;;;;;6.32;3.10;;;;;;;;;;5061763;28;19916;-82
2021/03/26 12:23:52;;;;;;;5.50;2.38;;;;;;;;;;5064161;28;20021;-81
2021/03/26 12:26:29;;;;;;;6.72;2.92;;;;;;;;;;5057831;28;20074;-80
2021/03/26 12:28:55;;;;;;;7.13;3.10;;;;;;;;;;5061978;28;20060;-81
2021/03/26 12:31:21;;;;;;;6.32;2.50;;;;;;;;;;5062218;28;20401;-80
2021/03/26 12:33:55;;;;;;;7.25;3.22;;;;;;;;;;5059589;28;20020;-81
2021/03/26 12:36:31;;;;;;;4.28;2.58;;;;;;;;;;5056743;28;20122;-81
2021/03/26 12:41:23;;;;;;;6.60;2.40;;;;;;;;;;5090476;27;20375;-79
2021/03/26 12:43:57;;;;;;;7.20;2.75;;;;;;;;;;5079682;28;20105;-79
2021/03/26 12:46:28;;;;;;;7.38;2.20;;;;;;;;;;5076279;28;20023;-79
2021/03/26 12:48:53;;;;;;;4.80;2.50;;;;;;;;;;5068613;28;20577;-79
2021/03/26 12:51:26;;;;;;;4.72;2.40;;;;;;;;;;5073392;28;20036;-79
2021/03/26 12:53:55;;;;;;;5.90;2.92;;;;;;;;;;5078216;28;20484;-79
2021/03/26 12:56:24;;;;;;;4.55;2.53;;;;;;;;;;5077018;28;20756;-79
2021/03/26 12:58:58;;;;;;;4.45;2.58;;;;;;;;;;5072012;28;20062;-78
2021/03/26 13:01:28;;;;;;;6.72;2.95;;;;;;;;;;5075798;28;20048;-79
2021/03/26 13:03:54;;;;;;;6.75;2.75;;;;;;;;;;5080867;28;20044;-78
2021/03/26 13:06:25;;;;;;;6.40;2.80;;;;;;;;;;5075148;28;20028;-79
2021/03/26 13:08:54;;;;;;;6.32;3.13;;;;;;;;;;5069516;28;20020;-79
2021/03/26 13:11:20;;;;;;;5.38;2.50;;;;;;;;;;5071569;28;20028;-79
2021/03/26 13:13:54;;;;;;;7.00;3.40;;;;;;;;;;5081291;28;20494;-81
2021/03/26 13:16:35;;;;;;;9.73;3.88;;;;;;;;;;5070106;28;20103;-80
2021/03/26 13:19:05;;;;;;;6.20;2.80;;;;;;;;;;5071552;28;20757;-80
2021/03/26 13:21:38;;;;;;;5.57;3.33;;;;;;;;;;5079013;28;20631;-80
2021/03/26 13:24:23;;;;;;;6.45;3.28;;;;;;;;;;5071496;28;20036;-80
2021/03/26 13:27:08;;;;;;;4.75;2.72;;;;;;;;;;5082317;28;20024;-80
2021/03/26 13:29:34;;;;;;;6.68;3.30;;;;;;;;;;5083452;28;20028;-80
2021/03/26 13:32:05;;;;;;;7.13;3.28;;;;;;;;;;5080846;28;20047;-80
2021/03/26 13:34:38;;;;;;;7.80;4.28;;;;;;;;;;5068947;28;20059;-80
2021/03/26 13:37:13;;;;;;;4.85;2.97;;;;;;;;;;5074889;28;20120;-80
2021/03/26 13:39:51;;;;;;;7.25;3.15;;;;;;;;;;5079930;28;20021;-79
2021/03/26 13:42:29;;;;;;;6.70;3.10;;;;;;;;;;5069622;28;20047;-80
2021/03/26 13:45:04;;;;;;;4.68;3.05;;;;;;;;;;5061020;28;20074;-80
2021/03/26 13:48:05;;;;;;;11.90;6.03;;;;;;;;;;5081353;28;20056;-80
2021/03/26 13:50:37;;;;;;;9.02;3.60;;;;;;;;;;5027786;28;20493;-80
2021/03/26 13:53:02;;;;;;;5.68;3.25;;;;;;;;;;5063406;28;20477;-82
2021/03/26 13:55:31;;;;;;;6.05;3.25;;;;;;;;;;5061344;28;20075;-82
2021/03/26 13:58:11;;;;;;;7.65;3.45;;;;;;;;;;5066757;28;20024;-82
2021/03/26 14:00:38;;;;;;;6.72;3.90;;;;;;;;;;5070086;28;21275;-80
2021/03/26 14:03:21;;;;;;;6.50;3.35;;;;;;;;;;5054958;28;20035;-81
2021/03/26 14:05:50;;;;;;;7.05;3.42;;;;;;;;;;5065636;28;20017;-82
2021/03/26 14:08:20;;;;;;;9.25;3.25;;;;;;;;;;5064687;28;20051;-80
2021/03/26 14:10:49;;;;;;;12.63;4.22;;;;;;;;;;5062186;28;20064;-82
2021/03/26 14:13:21;;;;;;;8.25;4.93;;;;;;;;;;5066968;28;20025;-79
2021/03/26 14:15:57;;;;;;;9.45;3.80;;;;;;;;;;5057384;28;20024;-81
2021/03/26 14:18:27;;;;;;;8.40;4.22;;;;;;;;;;5055538;28;20052;-82
2021/03/26 14:21:10;;;;;;;5.25;3.40;;;;;;;;;;5069094;28;20016;-81
2021/03/26 14:23:37;;;;;;;6.85;3.75;;;;;;;;;;5066106;28;20542;-81
2021/03/26 14:26:20;;;;;;;7.85;3.63;;;;;;;;;;5068708;28;20021;-81
2021/03/26 14:28:49;;;;;;;4.80;3.30;;;;;;;;;;5067943;28;20044;-82
2021/03/26 14:31:17;;;;;;;5.72;3.15;;;;;;;;;;5066743;28;20039;-81
2021/03/26 14:33:49;;;;;;;7.75;3.60;;;;;;;;;;5060833;28;20020;-81
2021/03/26 14:36:15;;;;;;;10.13;3.83;;;;;;;;;;5063369;28;20037;-81
2021/03/26 14:38:49;;;;;;;5.78;3.40;;;;;;;;;;5067416;28;20020;-81
2021/03/26 14:41:15;;;;;;;8.00;3.63;;;;;;;;;;5067598;28;20493;-81
2021/03/26 14:43:42;;;;;;;6.28;3.50;;;;;;;;;;5066279;28;20021;-81
2021/03/26 14:46:08;;;;;;;5.13;2.85;;;;;;;;;;5072426;28;20035;-81
2021/03/26 14:48:42;;;;;;;5.78;3.08;;;;;;;;;;5069557;28;20028;-82
2021/03/26 14:51:17;;;;;;;9.20;4.30;;;;;;;;;;5067358;28;20054;-81
2021/03/26 14:53:52;;;;;;;7.45;3.83;;;;;;;;;;5065130;28;20048;-81
2021/03/26 14:56:23;;;;;;;9.77;4.28;;;;;;;;;;5066522;28;20066;-82
2021/03/26 14:58:51;;;;;;;12.50;4.00;;;;;;;;;;5058491;28;20024;-82
2021/03/26 15:01:22;;;;;;;9.32;3.80;;;;;;;;;;5062153;28;20020;-82
2021/03/26 15:03:56;;;;;;;8.13;3.78;;;;;;;;;;5047605;28;20040;-81
2021/03/26 15:06:40;;;;;;;6.30;3.53;;;;;;;;;;5058883;28;20079;-81
2021/03/26 15:09:13;;;;;;;6.88;3.70;;;;;;;;;;5066558;28;20063;-81
2021/03/26 15:11:39;;;;;;;6.63;3.58;;;;;;;;;;5059900;28;20031;-83
2021/03/26 15:14:18;;;;;;;6.75;3.58;;;;;;;;;;5064433;28;20037;-83
2021/03/26 15:17:03;;;;;;;8.45;3.50;;;;;;;;;;5060775;28;20078;-80
2021/03/26 15:19:30;;;;;;;7.65;4.00;;;;;;;;;;5055487;28;20064;-81
2021/03/26 15:21:59;;;;;;;11.52;4.10;;;;;;;;;;5067351;28;20024;-81
2021/03/26 15:24:34;;;;;;;11.00;4.25;;;;;;;;;;5069290;28;20028;-81
2021/03/26 15:27:20;;;;;;;8.05;3.65;;;;;;;;;;5061381;28;20054;-81
2021/03/26 15:29:52;;;;;;;5.85;3.78;;;;;;;;;;5063255;28;20025;-81
2021/03/26 15:32:21;;;;;;;5.43;2.90;;;;;;;;;;5064829;28;20070;-81
2021/03/26 15:34:56;;;;;;;7.78;4.38;;;;;;;;;;5068631;28;20044;-80
2021/03/26 15:37:33;;;;;;;6.97;3.85;;;;;;;;;;5061706;28;20389;-81
2021/03/26 15:40:01;;;;;;;6.85;3.80;;;;;;;;;;5067381;28;20032;-81
2021/03/26 15:42:32;;;;;;;5.30;3.78;;;;;;;;;;5062621;28;20580;-81
2021/03/26 15:44:58;;;;;;;7.28;3.55;;;;;;;;;;5069453;28;20020;-81
2021/03/26 15:47:27;;;;;;;5.47;3.45;;;;;;;;;;5065443;28;20734;-81
2021/03/26 15:50:05;;;;;;;7.15;3.78;;;;;;;;;;5063602;28;20020;-81
2021/03/26 15:52:45;;;;;;;6.78;3.58;;;;;;;;;;5066198;28;20059;-82
2021/03/26 15:55:25;;;;;;;8.00;3.80;;;;;;;;;;5061399;28;20029;-81
2021/03/26 15:58:09;;;;;;;9.95;4.30;;;;;;;;;;5062168;28;20350;-81
2021/03/26 16:00:50;;;;;;;9.63;4.60;;;;;;;;;;5067970;28;20017;-81
2021/03/26 16:03:30;;;;;;;5.38;3.80;;;;;;;;;;5058202;28;20017;-81
2021/03/26 16:05:56;;;;;;;10.05;5.40;;;;;;;;;;5055840;28;20016;-80
2021/03/26 16:08:30;;;;;;;8.98;4.95;;;;;;;;;;5065124;28;20021;-80
2021/03/26 16:11:14;;;;;;;6.35;4.47;;;;;;;;;;5068035;28;20484;-80
2021/03/26 16:14:01;;;;;;;8.63;4.65;;;;;;;;;;5064182;28;20087;-81
2021/03/26 16:16:35;;;;;;;9.38;4.28;;;;;;;;;;5065722;28;20354;-80
2021/03/26 16:19:16;;;;;;;9.07;4.60;;;;;;;;;;5078440;28;20000;-82
2021/03/26 16:21:50;;;;;;;10.88;4.75;;;;;;;;;;5067288;28;20074;-82
2021/03/26 16:24:21;;;;;;;7.43;4.72;;;;;;;;;;5065810;28;20036;-84
2021/03/26 16:27:13;;;;;;;7.13;4.82;;;;;;;;;;5063449;28;20485;-82
2021/03/26 16:30:03;;;;;;;9.15;4.55;;;;;;;;;;5055272;28;20029;-82
2021/03/26 16:32:31;;;;;;;8.40;4.32;;;;;;;;;;5052120;28;20068;-82
2021/03/26 16:35:37;;;;;;;8.63;3.80;;;;;;;;;;5056458;28;20028;-82
2021/03/26 16:38:20;;;;;;;9.25;4.63;;;;;;;;;;5003058;28;20081;-82
2021/03/26 16:41:18;;;;;;;7.53;4.57;;;;;;;;;;5001175;28;20042;-82
2021/03/26 16:44:09;;;;;;;6.15;3.45;;;;;;;;;;5048905;28;20095;-82
2021/03/26 16:46:54;;;;;;;11.93;4.50;;;;;;;;;;5037978;28;20044;-81
2021/03/26 16:51:48;;;;;;;9.73;4.07;;;;;;;;;;5083443;28;20381;-81
2021/03/26 16:54:34;;;;;;;7.25;3.70;;;;;;;;;;5074987;28;20039;-80
2021/03/26 16:57:17;;;;;;;10.43;4.50;;;;;;;;;;5072445;28;20025;-81
2021/03/26 17:00:02;;;;;;;8.85;4.78;;;;;;;;;;5081407;28;20079;-81
2021/03/26 17:02:48;;;;;;;22.10;13.95;;;;;;;;;;5069952;28;20029;-80
2021/03/26 17:05:16;;;;;;;15.82;11.48;;;;;;;;;;5080218;28;20040;-80
2021/03/26 17:07:48;;;;;;;13.93;10.38;;;;;;;;;;5068949;28;20486;-80
2021/03/26 17:10:13;;;;;;;;;;;;;;;;;;5075757;28;20020;-79
2021/03/26 17:12:54;;;;;;;7.45;4.57;;;;;;;;;;5066445;28;19926;-80
2021/03/26 17:15:39;;;;;;;9.30;6.03;;;;;;;;;;5076062;28;20102;-80
2021/03/26 17:18:24;;;;;;;8.15;5.05;;;;;;;;;;5080776;28;20378;-81
2021/03/26 17:20:53;;;;;;;8.00;4.57;;;;;;;;;;5066655;28;20083;-81
2021/03/26 17:23:18;;;;;;;8.70;4.03;;;;;;;;;;5068631;28;20025;-81
2021/03/26 17:25:59;;;;;;;6.55;3.22;;;;;;;;;;5068530;28;20101;-80
2021/03/26 17:28:34;;;;;;;7.13;3.42;;;;;;;;;;5073660;28;20489;-80
2021/03/26 17:31:19;;;;;;;11.48;4.75;;;;;;;;;;5071620;28;20029;-80
2021/03/26 17:34:06;;;;;;;5.82;3.45;;;;;;;;;;5062788;28;20098;-80
2021/03/26 17:36:50;;;;;;;5.80;3.38;;;;;;;;;;5073434;28;20036;-80
2021/03/26 17:39:35;;;;;;;9.27;3.58;;;;;;;;;;5075508;28;20501;-80
2021/03/26 17:42:00;;;;;;;6.47;3.85;;;;;;;;;;5071308;28;20099;-80
2021/03/26 17:44:31;;;;;;;5.90;4.65;;;;;;;;;;5068940;28;20052;-80
2021/03/26 17:47:06;;;;;;;6.13;3.88;;;;;;;;;;5058449;28;20047;-81
2021/03/26 17:49:35;;;;;;;7.40;3.85;;;;;;;;;;5063688;28;20037;-79
2021/03/26 17:52:19;;;;;;;5.75;3.78;;;;;;;;;;5064390;28;20032;-81
2021/03/26 17:55:02;;;;;;;7.47;2.70;;;;;;;;;;5066383;28;20021;-83
2021/03/26 17:57:37;;;;;;;6.85;3.28;;;;;;;;;;5064094;28;20029;-80
2021/03/26 18:00:16;;;;;;;6.20;3.13;;;;;;;;;;5060183;28;20028;-81
2021/03/26 18:03:10;;;;;;;6.40;4.07;;;;;;;;;;5057156;28;20046;-80
2021/03/26 18:05:36;;;;;;;6.25;3.22;;;;;;;;;;5064808;28;20032;-80
2021/03/26 18:08:17;;;;;;;4.65;3.03;;;;;;;;;;5059875;28;20021;-80
2021/03/26 18:10:53;;;;;;;4.82;3.13;;;;;;;;;;5059556;28;20396;-80
2021/03/26 18:13:38;;;;;;;5.13;2.97;;;;;;;;;;5051374;28;20088;-81
2021/03/26 18:16:09;;;;;;;8.23;3.75;;;;;;;;;;5053457;28;20020;-81
2021/03/26 18:18:38;;;;;;;4.57;3.08;;;;;;;;;;5051138;23;20048;-81
2021/03/26 18:21:10;;;;;;;4.28;2.85;;;;;;;;;;5043624;28;20025;-81
2021/03/26 18:23:48;;;;;;;7.15;3.20;;;;;;;;;;5056833;28;20643;-81
2021/03/26 18:26:23;;;;;;;5.18;3.10;;;;;;;;;;5043878;28;20032;-81
2021/03/26 18:28:56;;;;;;;6.00;3.22;;;;;;;;;;5057962;28;20094;-80
2021/03/26 18:31:31;;;;;;;7.32;3.05;;;;;;;;;;5059609;28;20024;-81
2021/03/26 18:34:09;;;;;;;5.85;3.10;;;;;;;;;;5062383;28;20531;-80
2021/03/26 18:36:38;;;;;;;6.75;3.08;;;;;;;;;;5050947;28;20032;-80
2021/03/26 18:39:11;;;;;;;6.47;3.15;;;;;;;;;;5061081;28;20017;-80
2021/03/26 18:41:36;;;;;;;9.57;3.30;;;;;;;;;;5056661;28;20055;-81
2021/03/26 18:44:21;;;;;;;5.90;3.10;;;;;;;;;;5057696;28;20021;-80
2021/03/26 18:46:53;;;;;;;5.78;3.28;;;;;;;;;;5053529;28;20021;-79
2021/03/26 18:49:38;;;;;;;6.03;3.40;;;;;;;;;;5053068;28;20028;-79
2021/03/26 18:52:36;;;;;;;7.85;3.30;;;;;;;;;;5054084;28;20033;-80
2021/03/26 18:55:17;;;;;;;6.53;3.47;;;;;;;;;;5021288;28;20036;-80
2021/03/26 18:57:55;;;;;;;5.50;3.03;;;;;;;;;;5050108;28;20420;-80
2021/03/26 19:00:30;;;;;;;4.63;2.90;;;;;;;;;;5049845;28;20029;-80
2021/03/26 19:02:55;;;;;;;5.35;3.40;;;;;;;;;;5054213;28;20035;-80
2021/03/26 19:05:24;;;;;;;4.95;3.05;;;;;;;;;;5050605;28;20036;-79
2021/03/26 19:08:08;;;;;;;5.43;3.03;;;;;;;;;;5052333;28;20024;-79
2021/03/26 19:10:39;;;;;;;10.65;3.35;;;;;;;;;;5046048;28;20504;-80
2021/03/26 19:13:09;;;;;;;7.35;3.35;;;;;;;;;;5051167;28;20083;-80
2021/03/26 19:15:41;;;;;;;4.68;3.00;;;;;;;;;;5052934;28;20029;-80
2021/03/26 19:18:12;;;;;;;6.38;3.45;;;;;;;;;;5049750;28;20021;-80
2021/03/26 19:20:38;;;;;;;;;;;;;;;;;;5052395;28;20037;-80
2021/03/26 19:23:13;;;;;;;5.95;3.40;;;;;;;;;;5050065;28;19917;-80
2021/03/26 19:25:40;;;;;;;10.35;3.35;;;;;;;;;;5049867;28;20391;-80
2021/03/26 19:28:24;;;;;;;4.25;2.92;;;;;;;;;;5049272;28;20029;-80
2021/03/26 19:31:08;;;;;;;5.97;3.20;;;;;;;;;;5047307;28;20552;-80
2021/03/26 19:33:46;;;;;;;7.22;3.53;;;;;;;;;;5042681;28;20075;-80
2021/03/26 19:36:24;;;;;;;4.95;3.20;;;;;;;;;;5042576;28;20025;-79
2021/03/26 19:38:54;;;;;;;7.60;3.58;;;;;;;;;;5048509;28;20024;-80
2021/03/26 19:41:21;;;;;;;4.55;3.05;;;;;;;;;;5048767;28;20039;-79
2021/03/26 19:43:53;;;;;;;5.50;3.33;;;;;;;;;;5047373;28;20582;-80
2021/03/26 19:46:31;;;;;;;5.45;3.58;;;;;;;;;;5048182;28;20051;-80
2021/03/26 19:49:16;;;;;;;7.75;3.45;;;;;;;;;;5048677;28;20021;-80
2021/03/26 19:51:52;;;;;;;5.78;3.17;;;;;;;;;;5052725;28;20056;-79
2021/03/26 19:57:00;;;;;;;5.50;3.63;;;;;;;;;;5105549;27;20372;-81
2021/03/26 19:59:45;;;;;;;6.18;3.70;;;;;;;;;;5091599;28;20478;-81
2021/03/26 20:02:23;;;;;;;6.30;3.83;;;;;;;;;;5093971;28;20020;-81
2021/03/26 20:04:54;;;;;;;6.65;4.30;;;;;;;;;;5093622;28;20055;-81
2021/03/26 20:09:46;;;;;;;6.47;3.90;;;;;;;;;;5120277;27;20411;-79
2021/03/26 20:12:17;;;;;;;8.35;4.07;;;;;;;;;;5086323;28;20036;-79
2021/03/26 20:14:55;;;;;;;5.05;3.65;;;;;;;;;;5085709;28;20562;-78
2021/03/26 20:17:21;;;;;;;6.43;3.95;;;;;;;;;;5104391;28;20084;-78
2021/03/26 20:20:16;;;;;;;7.68;3.42;;;;;;;;;;5114765;28;20068;-78
2021/03/26 20:22:46;;;;;;;10.23;3.95;;;;;;;;;;5105221;28;20039;-78
2021/03/26 20:25:32;;;;;;;4.57;3.20;;;;;;;;;;5099979;28;20415;-78
2021/03/26 20:28:13;;;;;;;6.35;4.10;;;;;;;;;;5116209;28;20032;-78
2021/03/26 20:30:53;;;;;;;10.55;3.72;;;;;;;;;;5102553;28;20058;-79
2021/03/26 20:33:38;;;;;;;6.97;3.50;;;;;;;;;;5097709;28;20607;-79
2021/03/26 20:36:06;;;;;;;5.82;3.40;;;;;;;;;;5102446;28;20074;-81
2021/03/26 20:38:51;;;;;;;4.50;3.05;;;;;;;;;;5105819;28;20030;-81
2021/03/26 20:41:35;;;;;;;5.18;3.42;;;;;;;;;;5102736;28;20025;-81
2021/03/26 20:44:10;;;;;;;7.10;3.88;;;;;;;;;;5102721;28;20069;-81
2021/03/26 20:46:39;;;;;;;6.75;3.35;;;;;;;;;;5106564;28;20077;-81
2021/03/26 20:49:10;;;;;;;5.82;3.25;;;;;;;;;;5104442;28;20062;-81
2021/03/26 20:51:36;;;;;;;6.68;3.72;;;;;;;;;;5101739;28;20032;-80
2021/03/26 20:54:05;;;;;;;5.88;3.50;;;;;;;;;;5099509;28;20020;-81
2021/03/26 20:56:49;;;;;;;6.25;3.20;;;;;;;;;;5105537;28;20432;-81
2021/03/26 20:59:18;;;;;;;6.95;3.25;;;;;;;;;;5104615;28;20020;-81
2021/03/26 21:01:49;;;;;;;9.27;4.00;;;;;;;;;;5107867;28;20509;-81
2021/03/26 21:04:38;;;;;;;6.72;3.58;;;;;;;;;;5107197;28;20023;-81
2021/03/26 21:07:22;;;;;;;5.97;3.55;;;;;;;;;;5094195;28;20089;-81
2021/03/26 21:09:54;;;;;;;6.03;3.67;;;;;;;;;;5101413;28;20020;-81
2021/03/26 21:12:22;;;;;;;12.13;4.72;;;;;;;;;;5103452;28;20020;-81
2021/03/26 21:14:54;;;;;;;5.60;3.80;;;;;;;;;;5108967;28;20016;-81
2021/03/26 21:17:19;;;;;;;7.32;3.60;;;;;;;;;;5105228;28;20020;-81
2021/03/26 21:19:52;;;;;;;5.25;3.42;;;;;;;;;;5099903;28;20028;-81
2021/03/26 21:22:20;;;;;;;7.60;3.47;;;;;;;;;;5092271;28;20559;-81
2021/03/26 21:24:55;;;;;;;5.53;3.60;;;;;;;;;;5098022;28;20395;-81
2021/03/26 21:27:38;;;;;;;7.03;3.22;;;;;;;;;;5085069;28;20028;-81
2021/03/26 21:30:22;;;;;;;6.65;4.20;;;;;;;;;;5090967;28;20434;-81